createdAt,value
2023-02-04T00:02:02.986Z,98.92
2023-02-04T00:05:45.691Z,99.03
2023-02-04T00:09:28.414Z,100.00
2023-02-04T00:13:12.450Z,100.00
2023-02-04T00:16:55.175Z,100.00
2023-02-04T00:20:37.912Z,100.00
2023-02-04T00:24:20.550Z,100.00
2023-02-04T00:28:04.133Z,100.00
2023-02-04T00:31:48.263Z,100.00
2023-02-04T00:35:31.007Z,100.00
2023-02-04T00:39:13.795Z,100.00
2023-02-04T00:42:56.492Z,100.00
2023-02-04T00:46:39.168Z,100.00
2023-02-04T00:50:23.236Z,100.00
2023-02-04T00:54:06.028Z,100.00
2023-02-04T00:57:48.728Z,100.00
2023-02-04T01:01:31.424Z,100.00
2023-02-04T01:05:14.143Z,100.00
2023-02-04T01:08:58.148Z,100.00
2023-02-04T01:12:41.174Z,100.00
2023-02-04T01:16:23.964Z,100.00
2023-02-04T01:20:07.239Z,100.00
2023-02-04T01:23:50.760Z,100.00
2023-02-04T01:27:34.838Z,100.00
2023-02-04T01:31:18.121Z,100.00
2023-02-04T01:35:01.036Z,100.00
2023-02-04T01:38:43.746Z,100.00
2023-02-04T01:42:26.406Z,100.00
2023-02-04T01:46:10.667Z,100.00
2023-02-04T01:49:55.628Z,100.00
2023-02-04T01:53:39.126Z,100.00
2023-02-04T01:57:21.793Z,100.00
2023-02-04T02:01:07.819Z,100.00
2023-02-04T02:04:51.907Z,100.00
2023-02-04T02:08:34.597Z,100.00
2023-02-04T02:12:17.267Z,100.00
2023-02-04T02:15:59.871Z,100.00
2023-02-04T02:19:43.213Z,100.00
2023-02-04T02:23:44.113Z,100.00
2023-02-04T02:27:26.829Z,100.00
2023-02-04T02:31:09.952Z,100.00
2023-02-04T02:34:52.684Z,100.00
2023-02-04T02:38:35.522Z,100.00
2023-02-04T02:42:20.394Z,100.00
2023-02-04T02:46:03.179Z,100.00
2023-02-04T02:49:45.978Z,100.00
2023-02-04T02:53:28.611Z,100.00
2023-02-04T02:57:14.702Z,100.00
2023-02-04T03:00:59.391Z,100.00
2023-02-04T03:04:44.046Z,98.82
2023-02-04T03:08:26.959Z,98.47
2023-02-04T03:12:09.626Z,97.30
2023-02-04T03:15:52.336Z,95.67
2023-02-04T03:19:37.262Z,94.79
2023-02-04T03:23:20.689Z,94.59
2023-02-04T03:27:03.416Z,95.86
2023-02-04T03:30:53.764Z,100.00
2023-02-04T03:34:37.974Z,97.46
2023-02-04T03:38:20.702Z,97.16
2023-02-04T03:42:03.392Z,95.87
2023-02-04T03:45:46.198Z,94.59
2023-02-04T03:49:29.480Z,92.44
2023-02-04T03:53:13.527Z,91.94
2023-02-04T03:56:56.208Z,91.83
2023-02-04T04:00:38.880Z,90.90
2023-02-04T04:04:21.549Z,91.22
2023-02-04T04:08:04.321Z,91.90
2023-02-04T04:11:48.416Z,91.19
2023-02-04T04:15:31.779Z,91.71
2023-02-04T04:19:14.416Z,90.79
2023-02-04T04:22:57.073Z,90.72
2023-02-04T04:26:39.776Z,89.50
2023-02-04T04:30:23.828Z,88.29
2023-02-04T04:34:06.476Z,88.24
2023-02-04T04:37:49.113Z,87.79
2023-02-04T04:41:31.797Z,87.34
2023-02-04T04:45:14.628Z,86.64
2023-02-04T04:48:58.694Z,86.73
2023-02-04T04:52:41.327Z,86.40
2023-02-04T04:56:24.010Z,87.20
2023-02-04T05:00:11.475Z,86.61
2023-02-04T05:03:54.132Z,85.74
2023-02-04T05:07:38.181Z,86.03
2023-02-04T05:11:20.877Z,85.27
2023-02-04T05:15:03.926Z,84.97
2023-02-04T05:18:46.660Z,85.25
2023-02-04T05:22:29.330Z,85.18
2023-02-04T05:26:17.193Z,85.06
2023-02-04T05:30:08.767Z,85.59
2023-02-04T05:33:51.444Z,85.66
2023-02-04T05:37:34.396Z,85.39
2023-02-04T05:41:18.435Z,85.62
2023-02-04T05:45:01.068Z,85.89
2023-02-04T05:48:43.977Z,85.22
2023-02-04T05:52:26.718Z,85.12
2023-02-04T05:56:09.420Z,85.19
2023-02-04T05:59:53.491Z,85.80
2023-02-04T06:03:36.247Z,86.73
2023-02-04T06:07:19.214Z,87.03
2023-02-04T06:11:01.922Z,87.72
2023-02-04T06:14:44.608Z,88.42
2023-02-04T06:18:28.626Z,88.96
2023-02-04T06:22:11.248Z,89.47
2023-02-04T06:25:53.919Z,89.95
2023-02-04T06:29:36.694Z,90.53
2023-02-04T06:33:19.306Z,88.33
2023-02-04T06:37:03.363Z,88.87
2023-02-04T06:40:49.204Z,87.76
2023-02-04T06:44:31.942Z,86.58
2023-02-04T06:48:14.622Z,87.00
2023-02-04T06:51:57.297Z,85.87
2023-02-04T06:55:41.386Z,86.09
2023-02-04T06:59:26.090Z,84.45
2023-02-04T07:03:08.770Z,84.16
2023-02-04T07:06:51.508Z,83.48
2023-02-04T07:10:34.524Z,82.95
2023-02-04T07:14:19.483Z,82.31
2023-02-04T07:18:02.121Z,82.13
2023-02-04T07:21:44.825Z,82.46
2023-02-04T07:25:27.619Z,82.36
2023-02-04T07:29:14.833Z,82.15
2023-02-04T07:33:07.627Z,81.51
2023-02-04T07:36:50.483Z,81.05
2023-02-04T07:40:33.767Z,80.91
2023-02-04T07:44:16.763Z,80.11
2023-02-04T07:47:59.399Z,80.08
2023-02-04T07:51:43.379Z,79.02
2023-02-04T07:55:26.121Z,78.00
2023-02-04T07:59:08.744Z,78.45
2023-02-04T08:02:51.492Z,77.23
2023-02-04T08:06:34.509Z,77.28
2023-02-04T08:10:18.867Z,77.33
2023-02-04T08:14:01.529Z,76.88
2023-02-04T08:17:44.386Z,75.90
2023-02-04T08:21:27.110Z,76.38
2023-02-04T08:25:11.676Z,75.93
2023-02-04T08:28:56.437Z,75.87
2023-02-04T08:32:39.351Z,75.79
2023-02-04T08:36:23.951Z,74.85
2023-02-04T08:40:07.538Z,75.59
2023-02-04T08:43:50.205Z,75.02
2023-02-04T08:47:34.238Z,75.26
2023-02-04T08:51:17.016Z,74.58
2023-02-04T08:55:00.511Z,74.75
2023-02-04T08:58:43.619Z,74.12
2023-02-04T09:02:26.377Z,75.05
2023-02-04T09:06:10.455Z,73.61
2023-02-04T09:09:53.794Z,73.65
2023-02-04T09:13:36.546Z,73.42
2023-02-04T09:17:19.184Z,73.54
2023-02-04T09:21:01.895Z,73.08
2023-02-04T09:24:45.881Z,72.75
2023-02-04T09:28:28.582Z,73.28
2023-02-04T09:32:11.374Z,72.35
2023-02-04T09:35:54.156Z,73.36
2023-02-04T09:39:36.853Z,72.67
2023-02-04T09:43:25.115Z,73.33
2023-02-04T09:47:07.845Z,72.95
2023-02-04T09:50:51.056Z,72.74
2023-02-04T09:54:34.879Z,72.63
2023-02-04T09:58:22.106Z,72.65
2023-02-04T10:02:12.526Z,71.39
2023-02-04T10:05:55.202Z,71.61
2023-02-04T10:09:37.863Z,71.09
2023-02-04T10:13:25.740Z,71.98
2023-02-04T10:17:09.566Z,71.64
2023-02-04T10:20:56.689Z,72.32
2023-02-04T10:24:39.475Z,70.98
2023-02-04T10:28:34.323Z,71.22
2023-02-04T10:32:28.405Z,69.98
2023-02-04T10:36:11.061Z,70.78
2023-02-04T10:39:53.817Z,70.79
2023-02-04T10:43:37.814Z,70.79
2023-02-04T10:47:22.391Z,71.51
2023-02-04T10:51:05.313Z,72.26
2023-02-04T10:54:48.524Z,71.91
2023-02-04T10:58:32.001Z,71.83
2023-02-04T11:02:33.416Z,72.46
2023-02-04T11:06:19.273Z,72.20
2023-02-04T11:10:01.979Z,72.40
2023-02-04T11:13:46.218Z,71.87
2023-02-04T11:17:33.014Z,70.17
2023-02-04T11:21:19.331Z,69.92
2023-02-04T11:25:02.036Z,68.43
2023-02-04T11:29:09.898Z,68.39
2023-02-04T11:33:03.812Z,68.84
2023-02-04T11:36:58.739Z,68.13
2023-02-04T11:40:42.903Z,68.16
2023-02-04T11:44:25.673Z,68.47
2023-02-04T11:48:14.963Z,68.58
2023-02-04T11:52:15.151Z,68.81
2023-02-04T11:55:57.900Z,67.94
2023-02-04T11:59:43.648Z,66.16
2023-02-04T12:03:30.668Z,66.70
2023-02-04T12:07:14.074Z,66.23
2023-02-04T12:11:07.470Z,65.17
2023-02-04T12:14:58.108Z,65.03
2023-02-04T12:18:42.167Z,63.29
2023-02-04T12:22:24.968Z,63.76
2023-02-04T12:26:08.636Z,64.34
2023-02-04T12:29:51.442Z,64.66
2023-02-04T12:33:34.131Z,64.57
2023-02-04T12:37:18.209Z,64.63
2023-02-04T12:41:01.256Z,64.51
2023-02-04T12:44:44.531Z,63.60
2023-02-04T12:48:27.347Z,62.38
2023-02-04T12:52:10.135Z,62.25
2023-02-04T12:55:54.867Z,63.10
2023-02-04T12:59:38.500Z,62.78
2023-02-04T13:03:22.752Z,62.44
2023-02-04T13:07:07.269Z,62.79
2023-02-04T13:10:52.247Z,63.16
2023-02-04T13:14:36.364Z,63.28
2023-02-04T13:18:19.394Z,63.28
2023-02-04T13:22:02.331Z,62.66
2023-02-04T13:25:45.218Z,62.94
2023-02-04T13:29:27.954Z,61.81
2023-02-04T13:33:12.016Z,61.95
2023-02-04T13:36:55.122Z,61.54
2023-02-04T13:40:39.262Z,62.30
2023-02-04T13:44:21.984Z,62.38
2023-02-04T13:48:04.897Z,63.59
2023-02-04T13:51:48.952Z,64.05
2023-02-04T13:55:33.226Z,64.96
2023-02-04T13:59:16.079Z,65.23
2023-02-04T14:02:58.728Z,66.46
2023-02-04T14:06:43.667Z,67.18
2023-02-04T14:10:27.789Z,67.54
2023-02-04T14:14:10.506Z,67.26
2023-02-04T14:17:53.435Z,66.20
2023-02-04T14:21:36.136Z,65.03
2023-02-04T14:25:18.826Z,65.53
2023-02-04T14:29:04.367Z,64.74
2023-02-04T14:32:47.112Z,63.89
2023-02-04T14:36:29.837Z,63.73
2023-02-04T14:40:13.933Z,62.45
2023-02-04T14:43:59.991Z,62.80
2023-02-04T14:47:44.103Z,62.78
2023-02-04T14:51:26.804Z,62.44
2023-02-04T14:55:10.446Z,62.64
2023-02-04T14:58:53.070Z,62.77
2023-02-04T15:02:35.967Z,63.23
2023-02-04T15:06:20.147Z,63.45
2023-02-04T15:10:03.412Z,62.71
2023-02-04T15:13:46.182Z,63.58
2023-02-04T15:17:29.011Z,64.11
2023-02-04T15:21:11.670Z,64.40
2023-02-04T15:24:55.658Z,64.15
2023-02-04T15:28:38.394Z,63.99
2023-02-04T15:32:21.084Z,63.86
2023-02-04T15:36:03.802Z,64.61
2023-02-04T15:39:46.424Z,64.61
2023-02-04T15:43:30.601Z,64.77
2023-02-04T15:47:13.229Z,64.95
2023-02-04T15:50:56.366Z,64.85
2023-02-04T15:54:40.166Z,65.19
2023-02-04T15:58:22.884Z,65.08
2023-02-04T16:02:06.877Z,65.66
2023-02-04T16:05:49.638Z,65.42
2023-02-04T16:09:32.281Z,64.96
2023-02-04T16:13:14.992Z,65.35
2023-02-04T16:16:57.668Z,65.31
2023-02-04T16:20:41.783Z,65.15
2023-02-04T16:24:24.494Z,65.20
2023-02-04T16:28:07.213Z,65.10
2023-02-04T16:31:50.326Z,65.60
2023-02-04T16:35:33.326Z,65.32
2023-02-04T16:39:17.809Z,64.87
2023-02-04T16:43:00.474Z,65.21
2023-02-04T16:46:43.242Z,65.91
2023-02-04T16:50:25.968Z,65.70
2023-02-04T16:54:09.892Z,66.05
2023-02-04T16:57:53.904Z,65.53
2023-02-04T17:01:36.654Z,65.87
2023-02-04T17:05:19.532Z,65.63
2023-02-04T17:09:02.332Z,65.76
2023-02-04T17:12:45.032Z,65.61
2023-02-04T17:16:29.601Z,66.52
2023-02-04T17:20:12.610Z,66.79
2023-02-04T17:23:56.094Z,66.95
2023-02-04T17:27:38.780Z,67.29
2023-02-04T17:31:22.804Z,67.00
2023-02-04T17:35:07.574Z,67.70
2023-02-04T17:38:50.265Z,68.90
2023-02-04T17:42:32.929Z,67.80
2023-02-04T17:46:15.832Z,66.64
2023-02-04T17:49:58.546Z,66.41
2023-02-04T17:53:42.677Z,66.33
2023-02-04T17:57:25.295Z,67.04
2023-02-04T18:01:12.209Z,66.05
2023-02-04T18:04:56.170Z,66.05
2023-02-04T18:08:42.697Z,65.66
2023-02-04T18:12:25.315Z,65.15
2023-02-04T18:16:20.607Z,66.50
2023-02-04T18:20:03.261Z,66.40
2023-02-04T18:23:47.404Z,66.50
2023-02-04T18:27:31.920Z,64.33
2023-02-04T18:31:41.141Z,64.16
2023-02-04T18:35:40.141Z,64.78
2023-02-04T18:39:29.018Z,64.55
2023-02-04T18:43:24.655Z,62.78
2023-02-04T18:47:13.902Z,63.00
2023-02-04T18:50:56.585Z,61.12
2023-02-04T18:54:42.255Z,61.17
2023-02-04T18:58:29.843Z,61.62
2023-02-04T19:02:29.168Z,62.31
2023-02-04T19:06:25.388Z,62.06
2023-02-04T19:10:26.871Z,63.31
2023-02-04T19:14:18.765Z,63.01
2023-02-04T19:18:05.172Z,63.39
2023-02-04T19:21:48.911Z,63.71
2023-02-04T19:25:35.538Z,64.37
2023-02-04T19:29:37.999Z,64.00
2023-02-04T19:33:24.336Z,65.09
2023-02-04T19:37:17.389Z,65.29
2023-02-04T19:41:01.476Z,65.91
2023-02-04T19:44:45.705Z,64.96
2023-02-04T19:48:34.548Z,64.30
2023-02-04T19:52:34.755Z,63.87
2023-02-04T19:56:29.517Z,64.26
2023-02-04T20:00:29.656Z,65.30
2023-02-04T20:04:15.482Z,66.65
2023-02-04T20:08:01.163Z,66.09
2023-02-04T20:12:00.385Z,65.14
2023-02-04T20:15:44.094Z,64.39
2023-02-04T20:19:29.249Z,63.82
2023-02-04T20:23:19.795Z,64.18
2023-02-04T20:27:13.600Z,66.04
2023-02-04T20:30:58.916Z,65.18
2023-02-04T20:34:42.034Z,65.47
2023-02-04T20:38:24.679Z,66.74
2023-02-04T20:42:24.488Z,66.61
2023-02-04T20:46:08.752Z,66.79
2023-02-04T20:49:55.146Z,66.98
2023-02-04T20:53:39.010Z,68.30
2023-02-04T20:57:23.059Z,73.30
2023-02-04T21:01:19.646Z,67.13
2023-02-04T21:05:02.425Z,63.69
2023-02-04T21:08:46.158Z,63.93
2023-02-04T21:12:30.192Z,64.49
2023-02-04T21:16:12.869Z,63.69
2023-02-04T21:19:55.558Z,64.08
2023-02-04T21:23:39.116Z,64.35
2023-02-04T21:27:23.108Z,64.26
2023-02-04T21:31:07.287Z,65.22
2023-02-04T21:34:50.017Z,64.44
2023-02-04T21:38:32.673Z,64.75
2023-02-04T21:42:15.358Z,65.16
2023-02-04T21:45:58.425Z,65.18
2023-02-04T21:49:43.155Z,65.81
2023-02-04T21:53:25.965Z,65.63
2023-02-04T21:57:08.599Z,65.33
2023-02-04T22:00:51.246Z,64.73
2023-02-04T22:04:33.894Z,65.06
2023-02-04T22:08:17.933Z,64.72
2023-02-04T22:12:00.866Z,64.36
2023-02-04T22:15:43.683Z,64.19
2023-02-04T22:19:26.704Z,63.92
2023-02-04T22:23:09.436Z,64.27
2023-02-04T22:26:53.965Z,64.66
2023-02-04T22:30:37.695Z,63.74
2023-02-04T22:34:20.387Z,64.04
2023-02-04T22:38:03.385Z,64.09
2023-02-04T22:41:46.179Z,64.65
2023-02-04T22:45:30.239Z,64.35
2023-02-04T22:49:13.797Z,65.00
2023-02-04T22:52:56.528Z,64.75
2023-02-04T22:56:39.245Z,64.70
2023-02-04T23:00:22.297Z,63.51
2023-02-04T23:04:06.329Z,64.20
2023-02-04T23:07:48.988Z,64.60
2023-02-04T23:11:31.644Z,65.34
2023-02-04T23:15:14.978Z,65.58
2023-02-04T23:18:57.673Z,64.37
2023-02-04T23:22:41.742Z,64.49
2023-02-04T23:26:24.565Z,64.82
2023-02-04T23:30:08.291Z,66.12
2023-02-04T23:33:50.990Z,66.53
2023-02-04T23:37:33.925Z,67.04
2023-02-04T23:41:18.092Z,66.71
2023-02-04T23:45:02.904Z,66.71
2023-02-04T23:48:45.559Z,67.07
2023-02-04T23:52:29.360Z,67.55
2023-02-04T23:56:12.069Z,67.26
2023-02-04T23:59:56.179Z,67.51
